Time;durP1;ratioP1;P1;durP2;ratioP2;P2;SDS_P1;SDS_P2;PMS_P1;PMS_P2;Temp;Humidity;BMP_temperature;BMP_pressure;BME280_temperature;BME280_humidity;BME280_pressure;Samples;Min_cycle;Max_cycle;Signal;HPM_P1;HPM_P2
2023/04/08 00:00:37;;;;;;;8.95;3.67;;;13.60;78.50;;;;;;7382447;19;20007;-72
2023/04/08 00:03:06;;;;;;;9.05;3.65;;;13.60;78.30;;;;;;7379871;19;20027;-71
2023/04/08 00:05:35;;;;;;;9.00;3.42;;;13.50;78.20;;;;;;7402043;19;20382;-72
2023/04/08 00:08:04;;;;;;;9.73;3.50;;;13.50;78.20;;;;;;7380735;19;20011;-72
2023/04/08 00:10:35;;;;;;;8.23;3.50;;;13.40;78.50;;;;;;7380571;19;20327;-72
2023/04/08 00:13:04;;;;;;;9.98;3.58;;;13.40;78.90;;;;;;7380457;19;20460;-70
2023/04/08 00:15:33;;;;;;;9.55;3.80;;;13.40;78.80;;;;;;7380191;19;20007;-70
2023/04/08 00:18:02;;;;;;;10.32;3.75;;;13.30;78.80;;;;;;7379677;19;20011;-70
2023/04/08 00:20:30;;;;;;;8.32;3.75;;;13.30;78.70;;;;;;7403761;19;20074;-70
2023/04/08 00:22:59;;;;;;;9.15;3.30;;;13.30;78.70;;;;;;7381138;19;20006;-70
2023/04/08 00:25:28;;;;;;;6.47;3.25;;;13.20;78.40;;;;;;7381935;19;20419;-70
2023/04/08 00:28:04;;;;;;;14.52;3.58;;;13.10;78.40;;;;;;7381850;19;20023;-71
2023/04/08 00:30:33;;;;;;;6.80;3.40;;;13.10;78.70;;;;;;7379676;19;20006;-71
2023/04/08 00:33:02;;;;;;;6.65;3.40;;;13.00;79.70;;;;;;7380667;19;20014;-71
2023/04/08 00:35:31;;;;;;;6.70;3.53;;;13.00;78.90;;;;;;7401989;19;20023;-71
2023/04/08 00:37:59;;;;;;;8.57;3.10;;;13.00;78.80;;;;;;7379437;19;20015;-71
2023/04/08 00:40:28;;;;;;;8.15;3.53;;;12.90;79.00;;;;;;7380598;19;20003;-71
2023/04/08 00:42:59;;;;;;;8.95;3.10;;;12.90;79.30;;;;;;7381425;19;20103;-71
2023/04/08 00:45:31;;;;;;;7.80;3.05;;;12.90;79.00;;;;;;7379044;19;20011;-71
2023/04/08 00:48:00;;;;;;;7.63;3.13;;;12.80;79.30;;;;;;7378454;19;20071;-71
2023/04/08 00:50:29;;;;;;;8.25;3.38;;;12.80;79.30;;;;;;7401791;19;20031;-72
2023/04/08 00:52:58;;;;;;;11.80;3.20;;;12.70;79.40;;;;;;7376962;19;20402;-71
2023/04/08 00:55:26;;;;;;;10.60;3.70;;;12.80;79.60;;;;;;7379923;19;20044;-71
2023/04/08 00:57:55;;;;;;;10.70;3.65;;;12.70;79.70;;;;;;7380803;19;20024;-71
2023/04/08 01:00:25;;;;;;;13.43;3.10;;;12.70;79.60;;;;;;7380090;19;20018;-71
2023/04/08 01:03:07;;;;;;;5.10;3.08;;;12.70;79.40;;;;;;7399969;19;20007;-71
2023/04/08 01:05:43;;;;;;;10.20;3.53;;;12.70;79.60;;;;;;7379549;19;20031;-71
2023/04/08 01:08:13;;;;;;;9.25;3.97;;;12.60;79.90;;;;;;7379442;19;20003;-71
2023/04/08 01:10:44;;;;;;;12.75;4.18;;;12.60;79.90;;;;;;7379421;19;20011;-71
2023/04/08 01:13:16;;;;;;;10.02;3.83;;;12.60;80.50;;;;;;7379471;19;20401;-71
2023/04/08 01:15:46;;;;;;;8.25;3.67;;;12.60;80.40;;;;;;7379660;19;20019;-71
2023/04/08 01:18:19;;;;;;;8.85;3.60;;;12.60;80.10;;;;;;7379674;19;20370;-71
2023/04/08 01:20:49;;;;;;;5.80;3.45;;;12.60;80.10;;;;;;7401049;19;20031;-71
2023/04/08 01:23:25;;;;;;;11.57;4.15;;;12.50;80.20;;;;;;7378834;19;20031;-71
2023/04/08 01:25:58;;;;;;;12.70;3.97;;;12.50;80.20;;;;;;7380082;19;20110;-71
2023/04/08 01:28:30;;;;;;;9.05;3.33;;;12.50;80.50;;;;;;7380279;19;20003;-73
2023/04/08 01:31:02;;;;;;;8.35;4.00;;;12.50;80.20;;;;;;7379430;19;20034;-72
2023/04/08 01:33:32;;;;;;;9.18;3.35;;;12.50;80.20;;;;;;7379920;19;20022;-73
2023/04/08 01:36:02;;;;;;;10.90;3.83;;;12.40;80.20;;;;;;7377572;19;20075;-72
2023/04/08 01:38:33;;;;;;;8.23;3.67;;;12.40;80.10;;;;;;7399203;19;20063;-72
2023/04/08 01:41:05;;;;;;;10.10;3.75;;;12.40;80.00;;;;;;7378448;19;20370;-72
2023/04/08 01:43:35;;;;;;;9.90;4.10;;;12.40;80.40;;;;;;7379659;19;20027;-70
2023/04/08 01:46:04;;;;;;;9.80;4.68;;;12.40;80.30;;;;;;7379815;19;20070;-70
2023/04/08 01:48:33;;;;;;;10.85;3.40;;;12.40;80.20;;;;;;7379795;19;20422;-70
2023/04/08 01:51:03;;;;;;;12.70;4.20;;;12.40;79.80;;;;;;7377814;19;20011;-71
2023/04/08 01:53:32;;;;;;;15.00;4.65;;;12.30;80.10;;;;;;7400360;19;20019;-71
2023/04/08 01:56:14;;;;;;;11.35;4.63;;;12.40;80.40;;;;;;7378662;19;20007;-71
2023/04/08 01:58:46;;;;;;;9.63;4.15;;;12.30;80.30;;;;;;7379137;19;20072;-71
2023/04/08 02:01:19;;;;;;;9.82;4.63;;;12.30;80.70;;;;;;7379307;19;20003;-72
2023/04/08 02:03:50;;;;;;;8.60;4.07;;;12.30;80.80;;;;;;7380706;19;20013;-71
2023/04/08 02:06:19;;;;;;;12.18;5.07;;;12.30;80.80;;;;;;7392125;19;20059;-71
2023/04/08 02:08:48;;;;;;;11.98;4.38;;;12.30;80.50;;;;;;7413057;19;20010;-70
2023/04/08 02:11:20;;;;;;;5.57;3.88;;;12.30;80.20;;;;;;7392640;19;20003;-71
2023/04/08 02:13:48;;;;;;;9.15;4.10;;;12.30;80.40;;;;;;7392362;19;20070;-71
2023/04/08 02:16:21;;;;;;;7.88;4.18;;;12.30;80.40;;;;;;7392318;19;20013;-71
2023/04/08 02:18:58;;;;;;;9.30;4.35;;;12.30;80.20;;;;;;7392980;19;20020;-71
2023/04/08 02:21:33;;;;;;;9.15;4.30;;;12.30;80.10;;;;;;7392156;19;20018;-70
2023/04/08 02:24:06;;;;;;;11.15;4.45;;;12.30;79.80;;;;;;7393095;19;20019;-71
2023/04/08 02:26:40;;;;;;;12.70;4.60;;;12.30;80.10;;;;;;7412348;19;20014;-71
2023/04/08 02:29:13;;;;;;;8.93;4.45;;;12.30;80.20;;;;;;7392038;19;20411;-71
2023/04/08 02:31:43;;;;;;;12.63;4.60;;;12.20;80.50;;;;;;7392290;19;20003;-72
2023/04/08 02:34:16;;;;;;;8.93;4.10;;;12.20;80.70;;;;;;7391537;19;20080;-71
2023/04/08 02:36:46;;;;;;;14.73;4.63;;;12.20;80.70;;;;;;7390815;19;20023;-71
2023/04/08 02:39:14;;;;;;;13.82;4.25;;;12.20;81.00;;;;;;7392419;19;20007;-71
2023/04/08 02:41:46;;;;;;;9.75;4.45;;;12.10;81.30;;;;;;7411855;19;20086;-70
2023/04/08 02:44:15;;;;;;;6.72;4.10;;;12.10;81.90;;;;;;7391595;19;20016;-70
2023/04/08 02:46:43;;;;;;;8.15;4.32;;;12.00;83.20;;;;;;7391024;19;20023;-70
2023/04/08 02:49:12;;;;;;;14.52;4.60;;;12.00;82.50;;;;;;7390072;19;20014;-70
2023/04/08 02:51:40;;;;;;;9.85;4.05;;;12.00;82.50;;;;;;7391155;19;20019;-70
2023/04/08 02:54:09;;;;;;;12.00;4.47;;;12.10;82.40;;;;;;7389299;19;20051;-70
2023/04/08 02:56:38;;;;;;;12.40;4.53;;;12.10;82.30;;;;;;7413414;19;20006;-70
2023/04/08 02:59:09;;;;;;;10.40;3.95;;;12.10;81.90;;;;;;7390625;19;20101;-70
2023/04/08 03:01:38;;;;;;;10.15;4.82;;;12.10;81.80;;;;;;7391068;19;20077;-70
2023/04/08 03:04:07;;;;;;;8.75;4.18;;;12.10;81.60;;;;;;7390717;19;20379;-70
2023/04/08 03:06:36;;;;;;;9.00;4.25;;;12.10;81.10;;;;;;7389335;19;20002;-71
2023/04/08 03:09:04;;;;;;;11.52;4.18;;;12.10;80.90;;;;;;7390525;19;20062;-72
2023/04/08 03:11:33;;;;;;;11.85;4.22;;;12.10;80.60;;;;;;7412863;19;20368;-72
2023/04/08 03:14:02;;;;;;;11.35;4.05;;;12.10;80.40;;;;;;7390598;19;20050;-72
2023/04/08 03:16:33;;;;;;;8.13;3.55;;;12.00;80.50;;;;;;7383707;19;20011;-72
2023/04/08 03:19:02;;;;;;;10.77;4.95;;;12.10;80.60;;;;;;7384428;19;20011;-73
2023/04/08 03:21:31;;;;;;;11.60;4.88;;;12.00;80.60;;;;;;7382528;19;20020;-71
2023/04/08 03:23:59;;;;;;;9.73;3.92;;;12.00;80.50;;;;;;7385658;19;20082;-73
2023/04/08 03:26:28;;;;;;;13.70;4.55;;;11.90;80.30;;;;;;7402899;19;20413;-72
2023/04/08 03:28:57;;;;;;;10.45;4.78;;;11.90;80.40;;;;;;7384423;19;20007;-73
2023/04/08 03:31:25;;;;;;;12.07;4.97;;;11.80;80.80;;;;;;7384240;19;20235;-73
2023/04/08 03:33:57;;;;;;;9.10;4.20;;;11.70;81.80;;;;;;7383900;19;20094;-72
2023/04/08 03:36:26;;;;;;;9.40;4.45;;;11.70;81.70;;;;;;7383736;19;20007;-72
2023/04/08 03:38:55;;;;;;;12.18;4.30;;;11.60;81.70;;;;;;7402055;19;20007;-71
2023/04/08 03:41:23;;;;;;;10.90;4.57;;;11.60;81.30;;;;;;7382382;19;20009;-71
2023/04/08 03:43:52;;;;;;;12.35;4.40;;;11.60;81.40;;;;;;7381958;19;20003;-71
2023/04/08 03:46:21;;;;;;;12.35;4.60;;;11.60;81.10;;;;;;7382954;19;20007;-72
2023/04/08 03:48:50;;;;;;;8.95;4.10;;;11.60;81.20;;;;;;7382219;19;19999;-73
2023/04/08 03:51:21;;;;;;;11.18;4.70;;;11.60;81.30;;;;;;7383611;19;20131;-72
2023/04/08 03:53:50;;;;;;;9.63;5.35;;;11.60;81.60;;;;;;7402769;19;20015;-72
2023/04/08 03:56:18;;;;;;;8.10;4.28;;;11.50;82.30;;;;;;7382017;19;20101;-72
2023/04/08 03:58:47;;;;;;;12.68;5.05;;;11.50;82.50;;;;;;7381807;19;20379;-73
2023/04/08 04:01:16;;;;;;;8.57;4.40;;;11.50;82.80;;;;;;7382398;19;20007;-73
2023/04/08 04:03:44;;;;;;;14.07;4.32;;;11.40;82.70;;;;;;7382967;19;20014;-72
2023/04/08 04:06:13;;;;;;;11.35;4.47;;;11.40;81.80;;;;;;7383108;19;20010;-73
2023/04/08 04:08:45;;;;;;;9.75;4.65;;;11.40;81.40;;;;;;7402245;19;20011;-72
2023/04/08 04:11:13;;;;;;;12.32;4.28;;;11.50;81.20;;;;;;7381981;19;20070;-72
2023/04/08 04:13:42;;;;;;;11.05;4.57;;;11.40;81.20;;;;;;7381336;19;20006;-72
2023/04/08 04:16:11;;;;;;;12.80;4.80;;;11.30;80.90;;;;;;7383171;19;20010;-72
2023/04/08 04:18:39;;;;;;;11.25;4.68;;;11.40;81.00;;;;;;7381263;19;20098;-72
2023/04/08 04:21:09;;;;;;;9.85;4.50;;;11.30;80.70;;;;;;7381434;19;20378;-73
2023/04/08 04:23:37;;;;;;;12.50;5.13;;;11.20;80.50;;;;;;7402907;19;20023;-73
2023/04/08 04:26:13;;;;;;;9.43;4.65;;;11.20;80.80;;;;;;7380462;19;20007;-72
2023/04/08 04:28:41;;;;;;;13.00;4.70;;;11.30;81.20;;;;;;7379881;19;20287;-72
2023/04/08 04:31:10;;;;;;;12.10;5.20;;;11.20;81.10;;;;;;7381258;19;20022;-72
2023/04/08 04:33:39;;;;;;;9.93;4.30;;;11.20;80.70;;;;;;7381256;19;20027;-72
2023/04/08 04:36:07;;;;;;;9.25;4.53;;;11.20;80.80;;;;;;7379504;19;20053;-72
2023/04/08 04:38:37;;;;;;;9.27;4.72;;;11.10;80.80;;;;;;7402518;19;20006;-72
2023/04/08 04:41:06;;;;;;;18.60;5.28;;;11.10;80.60;;;;;;7380469;19;20018;-72
2023/04/08 04:43:37;;;;;;;10.95;5.07;;;11.10;80.90;;;;;;7381201;19;20019;-73
2023/04/08 04:46:07;;;;;;;9.77;5.18;;;11.10;81.30;;;;;;7380121;19;20003;-72
2023/04/08 04:48:36;;;;;;;9.25;4.78;;;11.00;81.60;;;;;;7380289;19;19999;-72
2023/04/08 04:51:06;;;;;;;20.67;5.13;;;11.00;81.80;;;;;;7381034;19;20007;-72
2023/04/08 04:53:35;;;;;;;13.23;4.63;;;11.00;81.20;;;;;;7400944;19;20334;-72
2023/04/08 04:56:04;;;;;;;14.65;5.97;;;11.00;81.00;;;;;;7379776;19;20014;-71
2023/04/08 04:58:33;;;;;;;12.77;5.30;;;11.00;81.10;;;;;;7382333;19;20010;-71
2023/04/08 05:01:04;;;;;;;12.68;5.35;;;11.00;81.30;;;;;;7382103;19;20007;-72
2023/04/08 05:03:33;;;;;;;12.00;5.45;;;11.00;81.10;;;;;;7382155;19;20382;-73
2023/04/08 05:06:04;;;;;;;13.27;5.78;;;11.00;81.10;;;;;;7379308;19;20018;-72
2023/04/08 05:08:32;;;;;;;11.40;5.13;;;10.90;80.80;;;;;;7400438;19;20070;-72
2023/04/08 05:11:01;;;;;;;13.60;5.53;;;10.90;81.00;;;;;;7379452;19;20066;-72
2023/04/08 05:13:30;;;;;;;11.52;5.30;;;10.90;80.80;;;;;;7379186;19;20007;-72
2023/04/08 05:15:59;;;;;;;11.35;5.70;;;10.90;81.10;;;;;;7379910;19;20007;-73
2023/04/08 05:18:30;;;;;;;15.70;6.40;;;10.90;80.90;;;;;;7378599;19;20010;-72
2023/04/08 05:20:58;;;;;;;15.27;5.53;;;10.90;80.80;;;;;;7393340;19;20264;-73
2023/04/08 05:23:27;;;;;;;11.23;6.00;;;10.90;80.80;;;;;;7401122;19;20023;-73
2023/04/08 05:25:56;;;;;;;14.27;6.40;;;10.90;81.00;;;;;;7378723;19;19999;-73
2023/04/08 05:28:25;;;;;;;12.52;5.70;;;10.90;81.10;;;;;;7378332;19;20071;-72
2023/04/08 05:30:54;;;;;;;11.15;5.65;;;10.90;81.00;;;;;;7378644;19;20063;-72
2023/04/08 05:33:25;;;;;;;15.80;7.03;;;10.90;81.30;;;;;;7380155;19;20007;-72
2023/04/08 05:35:56;;;;;;;16.10;7.47;;;10.90;81.20;;;;;;7400612;19;20010;-72
2023/04/08 05:38:25;;;;;;;13.32;6.53;;;10.90;81.30;;;;;;7378392;19;20062;-72
2023/04/08 05:40:53;;;;;;;13.18;6.55;;;10.90;81.20;;;;;;7377201;19;20492;-71
2023/04/08 05:43:22;;;;;;;13.13;6.75;;;10.90;81.30;;;;;;7379007;19;20007;-72
2023/04/08 05:45:51;;;;;;;16.05;6.88;;;10.90;81.30;;;;;;7378949;19;20010;-72
2023/04/08 05:48:19;;;;;;;16.00;7.22;;;10.90;81.50;;;;;;7377953;19;20064;-71
2023/04/08 05:50:49;;;;;;;16.77;7.63;;;10.90;81.40;;;;;;7398401;19;20067;-72
2023/04/08 05:53:20;;;;;;;15.45;6.53;;;10.90;81.40;;;;;;7378646;19;20003;-71
2023/04/08 05:55:49;;;;;;;13.82;6.88;;;10.90;81.30;;;;;;7378494;19;20070;-73
2023/04/08 05:58:18;;;;;;;15.48;7.25;;;10.90;82.30;;;;;;7379529;19;20275;-72
2023/04/08 06:00:46;;;;;;;16.00;6.32;;;11.00;81.70;;;;;;7377366;19;20010;-72
2023/04/08 06:03:15;;;;;;;16.60;7.65;;;11.00;81.40;;;;;;7379125;19;20075;-72
2023/04/08 06:05:44;;;;;;;13.15;6.32;;;11.00;81.40;;;;;;7400493;19;20011;-73
2023/04/08 06:08:12;;;;;;;20.73;7.10;;;11.00;82.40;;;;;;7378301;19;20068;-72
2023/04/08 06:10:50;;;;;;;15.40;7.03;;;11.00;81.60;;;;;;7380354;19;19999;-73
2023/04/08 06:13:20;;;;;;;21.60;7.82;;;11.10;81.80;;;;;;7379699;19;20013;-72
2023/04/08 06:15:50;;;;;;;20.50;8.20;;;11.10;81.90;;;;;;7379886;19;20002;-73
2023/04/08 06:18:19;;;;;;;16.40;8.05;;;11.10;82.20;;;;;;7378195;19;20019;-72
2023/04/08 06:20:48;;;;;;;23.65;7.88;;;11.10;82.50;;;;;;7400081;19;20354;-71
2023/04/08 06:23:16;;;;;;;16.15;8.45;;;11.10;82.70;;;;;;7378279;19;20011;-72
2023/04/08 06:25:47;;;;;;;19.55;8.35;;;11.20;82.90;;;;;;7377743;19;20701;-71
2023/04/08 06:28:16;;;;;;;19.08;8.43;;;11.20;83.10;;;;;;7377962;19;20264;-72
2023/04/08 06:30:45;;;;;;;20.83;8.98;;;11.30;83.30;;;;;;7380254;19;20099;-72
2023/04/08 06:33:14;;;;;;;17.40;8.93;;;11.30;83.40;;;;;;7379933;19;20066;-72
2023/04/08 06:35:43;;;;;;;20.33;9.50;;;11.40;83.60;;;;;;7400268;19;20362;-73
2023/04/08 06:38:11;;;;;;;22.10;9.93;;;11.50;83.70;;;;;;7377288;19;20070;-72
2023/04/08 06:40:40;;;;;;;24.63;10.05;;;11.50;84.10;;;;;;7377812;19;20023;-72
2023/04/08 06:43:12;;;;;;;24.55;11.40;;;11.50;84.10;;;;;;7377489;19;20021;-71
2023/04/08 06:45:41;;;;;;;31.15;12.50;;;11.60;85.00;;;;;;7375925;19;20219;-72
2023/04/08 06:48:10;;;;;;;29.50;12.88;;;11.50;84.00;;;;;;7377975;19;20020;-72
2023/04/08 06:50:39;;;;;;;28.08;12.65;;;11.60;84.00;;;;;;7399802;19;20027;-71
2023/04/08 06:53:08;;;;;;;28.65;12.85;;;11.70;84.20;;;;;;7383250;19;20267;-72
2023/04/08 06:55:37;;;;;;;32.63;14.48;;;11.70;84.10;;;;;;7384331;19;20078;-71
2023/04/08 06:58:05;;;;;;;29.88;14.02;;;11.70;84.00;;;;;;7384188;19;20003;-72
2023/04/08 07:00:36;;;;;;;38.97;13.57;;;11.60;83.80;;;;;;7382465;19;20007;-72
2023/04/08 07:03:05;;;;;;;30.88;13.50;;;11.60;83.90;;;;;;7383998;19;20027;-71
2023/04/08 07:05:34;;;;;;;28.98;13.23;;;11.60;83.80;;;;;;7405537;19;20062;-72
2023/04/08 07:08:05;;;;;;;31.80;13.95;;;11.80;83.70;;;;;;7382796;19;20003;-72
2023/04/08 07:10:34;;;;;;;29.60;14.65;;;11.90;83.60;;;;;;7383615;19;20373;-71
2023/04/08 07:13:02;;;;;;;30.70;15.05;;;11.90;83.10;;;;;;7383640;19;20036;-71
2023/04/08 07:15:31;;;;;;;37.33;14.85;;;12.00;83.30;;;;;;7383242;19;20020;-72
2023/04/08 07:18:03;;;;;;;32.08;15.63;;;12.10;83.20;;;;;;7382820;19;20028;-71
2023/04/08 07:20:34;;;;;;;28.40;14.77;;;12.20;83.30;;;;;;7403094;19;20003;-72
2023/04/08 07:23:03;;;;;;;32.08;13.85;;;12.40;83.40;;;;;;7382627;19;20732;-71
2023/04/08 07:25:32;;;;;;;35.03;15.68;;;12.50;82.80;;;;;;7382262;19;20011;-72
2023/04/08 07:28:00;;;;;;;37.22;14.13;;;12.60;82.40;;;;;;7383400;19;20024;-73
2023/04/08 07:30:29;;;;;;;33.72;13.88;;;12.60;81.70;;;;;;7383735;19;20015;-72
2023/04/08 07:32:58;;;;;;;29.48;14.60;;;12.70;81.30;;;;;;7405520;19;20010;-71
2023/04/08 07:35:30;;;;;;;31.65;14.68;;;12.60;81.00;;;;;;7383523;19;20039;-72
2023/04/08 07:37:59;;;;;;;28.52;12.80;;;12.40;80.90;;;;;;7382212;19;20011;-70
2023/04/08 07:40:28;;;;;;;30.27;13.25;;;12.50;80.50;;;;;;7382514;19;20007;-70
2023/04/08 07:42:57;;;;;;;30.25;13.55;;;12.60;80.70;;;;;;7382637;19;20080;-70
2023/04/08 07:45:26;;;;;;;24.42;12.88;;;12.60;81.00;;;;;;7382568;19;20436;-70
2023/04/08 07:47:54;;;;;;;23.88;12.10;;;12.70;80.60;;;;;;7404282;19;20011;-70
2023/04/08 07:50:23;;;;;;;33.65;12.55;;;12.70;80.00;;;;;;7379717;19;20059;-70
2023/04/08 07:52:55;;;;;;;25.45;11.93;;;12.80;80.20;;;;;;7381901;19;20003;-70
2023/04/08 07:55:24;;;;;;;25.23;11.90;;;12.80;80.30;;;;;;7382281;19;20022;-70
2023/04/08 07:57:53;;;;;;;21.40;11.45;;;13.00;80.30;;;;;;7381124;19;20007;-71
2023/04/08 08:00:22;;;;;;;30.77;12.73;;;13.00;79.90;;;;;;7383055;19;20007;-72
2023/04/08 08:02:51;;;;;;;25.98;12.65;;;13.00;79.80;;;;;;7403898;19;20014;-72
2023/04/08 08:05:20;;;;;;;25.42;11.90;;;13.10;79.60;;;;;;7380471;19;20070;-72
2023/04/08 08:07:49;;;;;;;23.38;12.00;;;13.10;79.30;;;;;;7380443;19;20006;-72
2023/04/08 08:10:22;;;;;;;24.52;11.88;;;13.10;79.60;;;;;;7380012;19;20016;-72
2023/04/08 08:12:50;;;;;;;28.50;12.85;;;13.00;79.10;;;;;;7380693;19;20113;-72
2023/04/08 08:15:19;;;;;;;32.47;12.20;;;13.10;79.20;;;;;;7379436;19;19996;-72
2023/04/08 08:17:48;;;;;;;28.27;12.90;;;13.10;79.50;;;;;;7399317;19;20014;-72
2023/04/08 08:20:17;;;;;;;30.35;12.95;;;13.10;79.70;;;;;;7379719;19;20020;-72
2023/04/08 08:22:45;;;;;;;24.08;12.15;;;13.20;79.60;;;;;;7379755;19;20070;-72
2023/04/08 08:25:14;;;;;;;28.20;13.00;;;13.20;79.30;;;;;;7379130;19;20023;-72
2023/04/08 08:27:45;;;;;;;29.90;13.15;;;13.30;78.90;;;;;;7379120;19;20026;-71
2023/04/08 08:30:15;;;;;;;26.27;12.93;;;13.20;79.00;;;;;;7378015;19;20010;-71
2023/04/08 08:32:43;;;;;;;31.10;12.27;;;13.00;78.80;;;;;;7401215;19;20007;-71
2023/04/08 08:35:12;;;;;;;24.95;13.15;;;13.10;79.00;;;;;;7379040;19;20088;-71
2023/04/08 08:37:40;;;;;;;31.80;13.48;;;13.20;78.90;;;;;;7378732;19;20023;-71
2023/04/08 08:40:11;;;;;;;32.20;14.20;;;13.20;78.70;;;;;;7378469;19;20019;-71
2023/04/08 08:42:41;;;;;;;25.67;13.00;;;13.00;78.80;;;;;;7380378;19;20377;-71
2023/04/08 08:45:13;;;;;;;31.50;13.52;;;13.00;79.00;;;;;;7380340;19;20074;-70
2023/04/08 08:47:42;;;;;;;27.13;13.73;;;13.10;79.70;;;;;;7400605;19;20019;-74
2023/04/08 08:50:11;;;;;;;26.15;13.88;;;13.20;79.90;;;;;;7377489;19;20014;-74
2023/04/08 08:52:40;;;;;;;31.88;13.30;;;13.30;79.30;;;;;;7378502;19;20254;-74
2023/04/08 08:55:10;;;;;;;28.85;13.10;;;13.40;79.20;;;;;;7379661;19;20003;-72
2023/04/08 08:57:38;;;;;;;33.83;14.70;;;13.50;79.40;;;;;;7379213;19;20007;-76
2023/04/08 09:00:09;;;;;;;31.95;14.02;;;13.40;80.00;;;;;;7376846;19;20279;-73
2023/04/08 09:02:40;;;;;;;28.73;13.47;;;13.50;78.90;;;;;;7398788;19;20010;-74
2023/04/08 09:05:10;;;;;;;29.20;13.98;;;13.50;78.80;;;;;;7377987;19;20006;-75
2023/04/08 09:07:40;;;;;;;31.40;12.98;;;13.50;78.60;;;;;;7378240;19;20020;-74
2023/04/08 09:10:10;;;;;;;32.55;13.65;;;13.40;78.50;;;;;;7378212;19;20082;-74
2023/04/08 09:12:56;;;;;;;36.17;14.73;;;13.40;78.50;;;;;;7378139;19;20007;-74
2023/04/08 09:15:25;;;;;;;37.58;16.75;;;13.40;79.00;;;;;;7373773;19;20652;-74
2023/04/08 09:17:57;;;;;;;31.60;15.38;;;13.50;79.80;;;;;;7397700;19;20023;-74
2023/04/08 09:20:26;;;;;;;26.98;13.68;;;13.50;78.70;;;;;;7378248;19;20007;-73
2023/04/08 09:22:59;;;;;;;35.00;13.77;;;13.60;78.80;;;;;;7377134;19;20012;-73
2023/04/08 09:25:35;;;;;;;27.90;13.45;;;13.60;78.80;;;;;;7380546;19;20063;-77
2023/04/08 09:28:04;;;;;;;28.50;13.93;;;13.60;78.50;;;;;;7380542;19;20358;-73
2023/04/08 09:30:35;;;;;;;29.23;14.38;;;13.50;78.20;;;;;;7380112;19;20005;-75
2023/04/08 09:33:07;;;;;;;;;;;13.40;78.30;;;;;;7382198;19;20356;-75
2023/04/08 09:35:35;;;;;;;26.75;12.90;;;13.60;79.40;;;;;;7399003;19;19911;-73
2023/04/08 09:38:04;;;;;;;26.95;12.90;;;13.60;78.80;;;;;;7377649;19;20292;-73
2023/04/08 09:40:38;;;;;;;22.33;12.63;;;13.60;79.00;;;;;;7378119;19;20062;-73
2023/04/08 09:43:11;;;;;;;28.35;12.77;;;13.40;78.40;;;;;;7378977;19;20016;-78
2023/04/08 09:45:41;;;;;;;23.63;11.70;;;13.30;78.30;;;;;;7378818;19;20005;-72
2023/04/08 09:48:20;;;;;;;22.60;11.30;;;13.50;78.60;;;;;;7379518;19;20222;-72
2023/04/08 09:50:54;;;;;;;27.75;12.27;;;13.50;78.50;;;;;;7400612;19;20023;-75
2023/04/08 09:53:31;;;;;;;22.00;10.52;;;13.50;78.50;;;;;;7379754;19;20015;-73
2023/04/08 09:56:01;;;;;;;17.67;10.45;;;13.60;77.60;;;;;;7378373;19;20007;-74
2023/04/08 09:58:40;;;;;;;22.10;11.25;;;13.60;77.40;;;;;;7382417;19;20003;-77
2023/04/08 10:01:11;;;;;;;29.27;12.40;;;13.50;77.70;;;;;;7380900;19;19999;-74
2023/04/08 10:03:48;;;;;;;24.67;11.77;;;13.60;77.60;;;;;;7380124;19;20381;-75
2023/04/08 10:06:20;;;;;;;24.17;11.98;;;13.60;77.60;;;;;;7379160;19;20027;-75
2023/04/08 10:08:51;;;;;;;18.85;10.85;;;13.70;78.10;;;;;;7401656;19;20215;-77
2023/04/08 10:11:20;;;;;;;24.17;11.48;;;13.70;77.50;;;;;;7378697;19;19998;-78
2023/04/08 10:13:49;;;;;;;25.85;12.25;;;13.70;77.60;;;;;;7379010;19;20048;-75
2023/04/08 10:16:24;;;;;;;25.63;11.57;;;13.40;77.30;;;;;;7379251;19;20029;-74
2023/04/08 10:18:57;;;;;;;20.60;10.10;;;13.50;77.40;;;;;;7377286;19;20002;-73
2023/04/08 10:21:42;;;;;;;20.60;11.00;;;13.70;77.90;;;;;;7376269;19;20007;-73
2023/04/08 10:24:11;;;;;;;29.27;11.82;;;13.70;77.30;;;;;;7377066;19;20027;-73
2023/04/08 10:26:42;;;;;;;22.02;10.15;;;13.80;78.00;;;;;;7405358;19;20027;-72
2023/04/08 10:29:32;;;;;;;25.23;11.88;;;13.70;77.00;;;;;;7383851;19;20006;-71
2023/04/08 10:32:01;;;;;;;21.55;12.75;;;13.80;77.60;;;;;;7383667;19;20006;-71
2023/04/08 10:34:33;;;;;;;26.42;12.18;;;13.90;78.00;;;;;;7384351;19;20026;-72
2023/04/08 10:37:02;;;;;;;27.23;12.57;;;13.80;78.60;;;;;;7384358;19;20027;-72
2023/04/08 10:39:32;;;;;;;23.13;11.57;;;14.00;78.50;;;;;;7382172;19;20028;-74
2023/04/08 10:42:03;;;;;;;27.05;13.15;;;14.10;78.20;;;;;;7384903;19;20010;-74
2023/04/08 10:44:32;;;;;;;28.20;11.93;;;14.20;77.40;;;;;;7406936;19;20015;-73
2023/04/08 10:47:01;;;;;;;24.33;11.57;;;14.20;76.10;;;;;;7385705;19;20010;-71
2023/04/08 10:49:37;;;;;;;27.40;11.60;;;14.30;76.80;;;;;;7384298;19;20020;-74
2023/04/08 10:52:09;;;;;;;23.65;12.10;;;14.20;77.20;;;;;;7385009;19;20007;-73
2023/04/08 10:54:39;;;;;;;26.38;10.45;;;14.00;77.70;;;;;;7388009;19;20010;-72
2023/04/08 10:57:08;;;;;;;22.58;11.23;;;14.20;76.80;;;;;;7383531;19;20238;-74
2023/04/08 10:59:38;;;;;;;23.00;11.50;;;14.20;76.10;;;;;;7405349;19;20014;-72
2023/04/08 11:02:07;;;;;;;27.10;11.80;;;14.10;75.50;;;;;;7382773;19;20442;-72
2023/04/08 11:04:44;;;;;;;24.40;10.98;;;14.20;75.90;;;;;;7382997;19;20002;-72
2023/04/08 11:07:14;;;;;;;20.02;10.55;;;14.20;75.90;;;;;;7383439;19;20020;-72
2023/04/08 11:09:43;;;;;;;22.02;10.80;;;14.40;76.50;;;;;;7380241;19;20361;-72
2023/04/08 11:12:12;;;;;;;24.23;10.65;;;14.50;76.80;;;;;;7382572;19;20249;-74
2023/04/08 11:14:42;;;;;;;19.67;9.63;;;14.60;76.10;;;;;;7402135;19;20011;-74
2023/04/08 11:17:11;;;;;;;20.40;11.27;;;14.70;75.40;;;;;;7380943;19;20010;-71
2023/04/08 11:19:42;;;;;;;23.00;11.07;;;14.80;75.00;;;;;;7382638;19;20020;-72
2023/04/08 11:22:13;;;;;;;22.73;10.18;;;15.00;75.00;;;;;;7382973;19;20071;-73
2023/04/08 11:24:43;;;;;;;25.63;10.95;;;15.00;74.80;;;;;;7382471;19;20028;-72
2023/04/08 11:27:11;;;;;;;21.90;10.05;;;15.20;74.40;;;;;;7384265;19;20063;-76
2023/04/08 11:29:40;;;;;;;22.65;9.38;;;15.20;74.70;;;;;;7404174;19;20011;-72
2023/04/08 11:32:10;;;;;;;21.95;9.50;;;15.20;73.90;;;;;;7381397;19;20362;-73
2023/04/08 11:34:43;;;;;;;18.85;9.75;;;15.20;73.00;;;;;;7382094;19;19999;-73
2023/04/08 11:37:12;;;;;;;20.33;9.07;;;15.10;72.00;;;;;;7380495;19;20010;-77
2023/04/08 11:39:44;;;;;;;17.45;9.02;;;15.00;72.30;;;;;;7382072;19;20331;-76
2023/04/08 11:42:28;;;;;;;22.83;10.20;;;15.20;72.70;;;;;;7383742;19;20007;-76
2023/04/08 11:44:57;;;;;;;16.60;9.20;;;15.20;71.60;;;;;;7404214;19;20013;-75
2023/04/08 11:47:32;;;;;;;17.00;9.43;;;15.20;72.00;;;;;;7382009;19;20015;-73
2023/04/08 11:50:04;;;;;;;22.67;10.02;;;15.10;71.50;;;;;;7380914;19;20016;-72
2023/04/08 11:52:47;;;;;;;21.23;9.50;;;15.30;71.90;;;;;;7381110;19;20077;-74
2023/04/08 11:55:25;;;;;;;17.85;8.73;;;15.20;71.40;;;;;;7384608;19;20025;-74
2023/04/08 11:57:55;;;;;;;21.08;10.07;;;15.30;71.40;;;;;;7384166;19;20231;-74
2023/04/08 12:00:26;;;;;;;19.85;8.43;;;15.40;71.30;;;;;;7383810;19;20019;-74
2023/04/08 12:02:55;;;;;;;13.05;7.13;;;15.30;69.80;;;;;;7401665;19;20007;-74
2023/04/08 12:05:26;;;;;;;16.30;7.10;;;15.40;71.10;;;;;;7380470;19;20074;-74
2023/04/08 12:07:55;;;;;;;19.77;8.48;;;15.50;70.80;;;;;;7380725;19;20023;-75
2023/04/08 12:10:24;;;;;;;14.98;8.23;;;15.60;70.20;;;;;;7380453;19;20008;-74
2023/04/08 12:12:53;;;;;;;17.20;8.82;;;15.80;69.80;;;;;;7379607;19;20007;-75
2023/04/08 12:15:24;;;;;;;14.18;7.85;;;15.80;69.30;;;;;;7381946;19;20377;-73
2023/04/08 12:17:53;;;;;;;15.32;8.52;;;16.00;69.10;;;;;;7403773;19;20010;-72
2023/04/08 12:20:22;;;;;;;14.65;7.80;;;16.00;68.30;;;;;;7381266;19;20367;-74
2023/04/08 12:22:53;;;;;;;16.17;7.28;;;16.10;66.60;;;;;;7380432;19;20027;-74
2023/04/08 12:25:22;;;;;;;13.35;6.90;;;16.10;67.80;;;;;;7381064;19;20011;-74
2023/04/08 12:27:51;;;;;;;11.93;7.35;;;16.20;67.40;;;;;;7379553;19;20024;-74
2023/04/08 12:30:20;;;;;;;18.05;7.43;;;16.30;67.40;;;;;;7380354;19;20027;-74
2023/04/08 12:32:48;;;;;;;17.55;7.65;;;16.30;67.80;;;;;;7401311;19;20006;-75
2023/04/08 12:35:18;;;;;;;16.83;7.65;;;16.40;67.80;;;;;;7379602;19;20078;-74
2023/04/08 12:37:47;;;;;;;14.70;7.43;;;16.40;67.60;;;;;;7379918;19;20070;-73
2023/04/08 12:40:19;;;;;;;13.02;7.65;;;16.50;67.40;;;;;;7380482;19;20302;-73
2023/04/08 12:42:48;;;;;;;17.77;7.95;;;16.60;67.50;;;;;;7381323;19;20154;-73
2023/04/08 12:45:16;;;;;;;12.85;7.32;;;16.60;65.70;;;;;;7380390;19;20048;-74
2023/04/08 12:47:45;;;;;;;14.63;6.90;;;16.70;65.80;;;;;;7401523;19;20019;-74
2023/04/08 12:50:14;;;;;;;11.98;6.65;;;16.70;66.30;;;;;;7378471;19;20007;-71